Time;durP1;ratioP1;P1;durP2;ratioP2;P2;SDS_P1;SDS_P2;PMS_P1;PMS_P2;Temp;Humidity;BMP_temperature;BMP_pressure;BME280_temperature;BME280_humidity;BME280_pressure;Samples;Min_cycle;Max_cycle;Signal;HPM_P1;HPM_P2
2023/04/07 00:00:10;;;;;;;58.38;36.55;;;;;;;;;;5053726;28;20419;-81
2023/04/07 00:02:36;;;;;;;60.33;36.85;;;;;;;;;;5071113;28;20915;-81
2023/04/07 00:05:02;;;;;;;57.25;37.75;;;;;;;;;;5057969;28;20767;-82
2023/04/07 00:07:28;;;;;;;56.80;37.83;;;;;;;;;;5065355;28;20939;-82
2023/04/07 00:09:54;;;;;;;60.08;38.65;;;;;;;;;;5054081;28;20425;-81
2023/04/07 00:12:21;;;;;;;71.60;38.92;;;;;;;;;;5063168;28;20442;-81
2023/04/07 00:14:47;;;;;;;67.63;38.90;;;;;;;;;;5067122;28;20422;-79
2023/04/07 00:17:13;;;;;;;70.45;39.85;;;;;;;;;;5058299;28;20480;-80
2023/04/07 00:19:39;;;;;;;70.35;39.85;;;;;;;;;;5058349;28;20410;-79
2023/04/07 00:22:05;;;;;;;73.20;39.83;;;;;;;;;;5056648;28;20453;-82
2023/04/07 00:24:31;;;;;;;71.82;40.25;;;;;;;;;;5104774;28;20480;-81
2023/04/07 00:26:57;;;;;;;65.60;39.67;;;;;;;;;;5102496;28;20423;-81
2023/04/07 00:29:23;;;;;;;74.90;41.00;;;;;;;;;;5050215;28;20422;-81
2023/04/07 00:31:49;;;;;;;76.32;42.22;;;;;;;;;;5079231;28;20401;-81
2023/04/07 00:34:18;;;;;;;89.27;44.03;;;;;;;;;;5063942;28;20428;-81
2023/04/07 00:36:50;;;;;;;81.88;45.20;;;;;;;;;;5059514;28;20423;-80
2023/04/07 00:39:16;;;;;;;82.45;43.20;;;;;;;;;;5074016;28;20976;-80
2023/04/07 00:41:43;;;;;;;86.63;44.55;;;;;;;;;;5074683;28;20929;-78
2023/04/07 00:44:09;;;;;;;83.40;44.45;;;;;;;;;;5062056;28;20453;-81
2023/04/07 00:46:35;;;;;;;84.75;43.42;;;;;;;;;;5071235;28;20937;-81
2023/04/07 00:49:01;;;;;;;86.97;44.58;;;;;;;;;;5037283;28;20415;-80
2023/04/07 00:51:27;;;;;;;87.07;46.63;;;;;;;;;;5070284;28;20419;-81
2023/04/07 00:53:54;;;;;;;87.45;44.80;;;;;;;;;;5072255;28;20399;-81
2023/04/07 00:56:20;;;;;;;86.97;44.78;;;;;;;;;;5070310;28;20416;-81
2023/04/07 00:58:46;;;;;;;94.28;46.38;;;;;;;;;;5051643;28;20456;-80
2023/04/07 01:01:19;;;;;;;95.07;45.97;;;;;;;;;;5029673;28;20420;-80
2023/04/07 01:03:48;;;;;;;86.78;46.08;;;;;;;;;;5042578;28;20423;-79
2023/04/07 01:06:15;;;;;;;94.18;45.53;;;;;;;;;;5053252;28;20457;-79
2023/04/07 01:08:46;;;;;;;97.03;49.00;;;;;;;;;;5066095;28;20412;-78
2023/04/07 01:11:32;;;;;;;92.70;47.45;;;;;;;;;;5051458;28;20835;-78
2023/04/07 01:14:00;;;;;;;98.50;46.83;;;;;;;;;;5063036;28;20911;-79
2023/04/07 01:16:28;;;;;;;94.53;45.92;;;;;;;;;;5054602;28;20508;-79
2023/04/07 01:18:55;;;;;;;99.70;46.78;;;;;;;;;;5053473;28;20784;-77
2023/04/07 01:21:22;;;;;;;100.60;46.85;;;;;;;;;;5048791;28;20417;-79
2023/04/07 01:24:31;;;;;;;111.22;48.10;;;7.10;99.90;;;;;;5055135;28;20427;-79
2023/04/07 01:27:00;;;;;;;93.22;45.50;;;;;;;;;;5097482;28;20432;-79
2023/04/07 01:29:40;;;;;;;102.80;46.90;;;;;;;;;;5067825;28;20424;-78
2023/04/07 01:32:09;;;;;;;105.18;47.88;;;;;;;;;;5057160;28;20424;-79
2023/04/07 01:34:36;;;;;;;91.05;46.95;;;;;;;;;;5071780;28;20456;-79
2023/04/07 01:37:03;;;;;;;113.50;49.40;;;;;;;;;;5054788;28;20442;-79
2023/04/07 01:39:29;;;;;;;93.15;44.72;;;;;;;;;;5073099;28;20419;-78
2023/04/07 01:41:57;;;;;;;93.68;46.20;;;;;;;;;;5063919;28;20421;-78
2023/04/07 01:44:23;;;;;;;111.32;48.63;;;;;;;;;;5080365;28;20427;-78
2023/04/07 01:46:52;;;;;;;101.88;48.60;;;;;;;;;;5067186;28;20423;-79
2023/04/07 01:49:18;;;;;;;110.47;47.53;;;;;;;;;;5050555;28;20776;-79
2023/04/07 01:51:49;;;;;;;110.10;47.63;;;;;;;;;;5073967;28;20425;-79
2023/04/07 01:54:16;;;;;;;112.72;49.35;;;;;;;;;;5084819;28;20546;-80
2023/04/07 01:56:43;;;;;;;118.45;49.10;;;;;;;;;;5069224;28;20422;-79
2023/04/07 01:59:09;;;;;;;122.05;48.97;;;;;;;;;;5070248;28;20439;-79
2023/04/07 02:01:35;;;;;;;103.50;46.55;;;;;;;;;;5053069;28;20455;-79
2023/04/07 02:04:06;;;;;;;99.72;47.30;;;;;;;;;;5047769;28;20420;-79
2023/04/07 02:06:34;;;;;;;100.70;46.80;;;;;;;;;;5064124;28;20473;-79
2023/04/07 02:09:03;;;;;;;119.93;48.92;;;;;;;;;;5069517;28;20434;-79
2023/04/07 02:11:32;;;;;;;128.85;49.53;;;;;;;;;;5055392;28;20420;-78
2023/04/07 02:14:01;;;;;;;118.13;49.28;;;7.00;99.90;;;;;;5050454;28;20463;-79
2023/04/07 02:16:29;;;;;;;113.28;47.38;;;;;;;;;;5048957;28;20415;-80
2023/04/07 02:18:55;;;;;;;111.25;46.17;;;;;;;;;;5037529;28;20947;-80
2023/04/07 02:21:22;;;;;;;99.55;44.05;;;;;;;;;;5063363;28;20786;-80
2023/04/07 02:23:48;;;;;;;105.18;43.30;;;;;;;;;;5107063;28;20426;-80
2023/04/07 02:26:14;;;;;;;96.65;43.58;;;;;;;;;;5035124;28;20420;-79
2023/04/07 02:28:40;;;;;;;90.63;41.95;;;;;;;;;;5047227;28;20456;-79
2023/04/07 02:31:06;;;;;;;91.00;41.90;;;;;;;;;;5086960;28;20759;-80
2023/04/07 02:33:32;;;;;;;85.03;40.10;;;;;;;;;;5056412;28;20402;-79
2023/04/07 02:35:59;;;;;;;77.03;38.45;;;;;;;;;;5038994;28;20419;-79
2023/04/07 02:38:25;;;;;;;71.78;36.65;;;;;;;;;;5103608;28;20932;-78
2023/04/07 02:40:51;;;;;;;74.70;36.20;;;;;;;;;;5064278;28;20426;-79
2023/04/07 02:43:18;;;;;;;68.97;35.60;;;;;;;;;;5067064;28;20425;-79
2023/04/07 02:45:44;;;;;;;72.25;35.88;;;;;;;;;;5098257;28;20425;-79
2023/04/07 02:48:10;;;;;;;69.15;36.25;;;;;;;;;;5072349;28;20421;-79
2023/04/07 02:50:36;;;;;;;72.28;35.75;;;;;;;;;;5051145;28;20913;-78
2023/04/07 02:53:02;;;;;;;72.38;34.83;;;;;;;;;;5049569;28;20419;-79
2023/04/07 02:55:28;;;;;;;74.20;36.78;;;;;;;;;;5102027;28;20432;-79
2023/04/07 02:57:54;;;;;;;74.77;35.80;;;;;;;;;;5051227;28;20507;-78
2023/04/07 03:00:20;;;;;;;78.65;36.40;;;;;;;;;;5074921;28;20448;-79
2023/04/07 03:02:46;;;;;;;74.47;35.15;;;;;;;;;;5056577;28;20842;-77
2023/04/07 03:05:12;;;;;;;78.22;36.25;;;;;;;;;;5058770;28;20777;-79
2023/04/07 03:07:39;;;;;;;74.90;36.03;;;;;;;;;;5074202;28;20428;-79
2023/04/07 03:10:05;;;;;;;72.32;36.08;;;;;;;;;;5061080;28;20509;-78
2023/04/07 03:12:31;;;;;;;70.72;35.90;;;;;;;;;;5062805;28;20481;-79
2023/04/07 03:14:57;;;;;;;68.13;33.28;;;;;;;;;;5052872;28;20473;-78
2023/04/07 03:17:23;;;;;;;73.23;34.00;;;;;;;;;;5074474;28;20543;-77
2023/04/07 03:19:50;;;;;;;65.90;32.30;;;;;;;;;;5053863;28;20826;-77
2023/04/07 03:22:16;;;;;;;71.60;32.38;;;;;;;;;;5072120;28;20430;-78
2023/04/07 03:24:43;;;;;;;60.58;31.80;;;;;;;;;;5061172;28;20456;-77
2023/04/07 03:27:09;;;;;;;66.00;31.08;;;;;;;;;;5053964;28;20418;-77
2023/04/07 03:29:35;;;;;;;65.07;30.98;;;;;;;;;;5066050;28;20501;-78
2023/04/07 03:32:01;;;;;;;69.43;31.10;;;;;;;;;;5074735;28;20418;-77
2023/04/07 03:34:27;;;;;;;60.97;30.60;;;;;;;;;;5069693;28;20425;-78
2023/04/07 03:36:53;;;;;;;61.08;30.58;;;;;;;;;;5075898;28;20481;-78
2023/04/07 03:39:19;;;;;;;62.20;29.50;;;;;;;;;;5074023;28;20421;-78
2023/04/07 03:41:45;;;;;;;53.83;28.10;;;;;;;;;;5089635;28;20471;-78
2023/04/07 03:44:11;;;;;;;53.47;27.15;;;;;;;;;;5070676;28;20435;-78
2023/04/07 03:46:37;;;;;;;56.53;28.38;;;;;;;;;;5062935;28;20430;-78
2023/04/07 03:49:03;;;;;;;55.92;28.48;;;;;;;;;;5061333;28;20917;-79
2023/04/07 03:51:29;;;;;;;55.38;27.55;;;;;;;;;;5072610;28;20414;-78
2023/04/07 03:53:55;;;;;;;59.58;28.60;;;;;;;;;;5108260;28;20410;-79
2023/04/07 03:56:22;;;;;;;54.97;28.63;;;;;;;;;;5091780;28;20410;-79
2023/04/07 03:58:48;;;;;;;56.83;28.40;;;;;;;;;;5093088;28;20417;-79
2023/04/07 04:01:14;;;;;;;56.75;27.85;;;;;;;;;;5065638;28;20922;-79
2023/04/07 04:03:40;;;;;;;55.00;29.60;;;;;;;;;;5066084;28;20422;-79
2023/04/07 04:06:06;;;;;;;54.47;30.77;;;;;;;;;;5105096;28;20414;-79
2023/04/07 04:08:32;;;;;;;55.92;29.13;;;;;;;;;;5074263;28;20989;-79
2023/04/07 04:10:58;;;;;;;58.45;29.40;;;;;;;;;;5058500;28;20418;-78
2023/04/07 04:13:24;;;;;;;57.53;31.97;;;;;;;;;;5072705;28;20459;-78
2023/04/07 04:15:51;;;;;;;60.47;31.75;;;;;;;;;;5068558;28;20910;-78
2023/04/07 04:18:17;;;;;;;61.17;31.63;;;;;;;;;;5064799;28;21020;-78
2023/04/07 04:20:43;;;;;;;58.78;31.17;;;;;;;;;;5057012;28;20439;-78
2023/04/07 04:23:09;;;;;;;64.07;31.30;;;;;;;;;;5057560;28;20429;-78
2023/04/07 04:25:38;;;;;;;64.47;32.25;;;;;;;;;;5074990;28;20919;-78
2023/04/07 04:28:05;;;;;;;65.22;31.38;;;;;;;;;;5072315;28;20763;-78
2023/04/07 04:30:31;;;;;;;59.17;31.20;;;;;;;;;;5056288;28;20424;-78
2023/04/07 04:32:57;;;;;;;59.83;30.75;;;;;;;;;;5067602;28;20416;-78
2023/04/07 04:35:23;;;;;;;57.33;31.35;;;;;;;;;;5088325;28;20400;-77
2023/04/07 04:37:49;;;;;;;58.55;30.73;;;;;;;;;;5086650;28;20415;-78
2023/04/07 04:40:15;;;;;;;52.97;30.55;;;;;;;;;;5070491;28;21065;-78
2023/04/07 04:42:41;;;;;;;52.83;32.42;;;;;;;;;;5074434;28;20459;-77
2023/04/07 04:45:08;;;;;;;51.05;29.73;;;;;;;;;;5064996;28;20417;-78
2023/04/07 04:47:34;;;;;;;50.58;30.95;;;;;;;;;;5072647;28;20422;-77
2023/04/07 04:50:00;;;;;;;53.28;30.92;;;;;;;;;;5043672;28;20425;-77
2023/04/07 04:52:26;;;;;;;52.63;30.33;;;;;;;;;;5050120;28;20925;-77
2023/04/07 04:54:52;;;;;;;52.65;32.15;;;;;;;;;;5073972;28;20781;-77
2023/04/07 04:57:18;;;;;;;54.03;30.75;;;;;;;;;;5068727;28;20725;-78
2023/04/07 04:59:44;;;;;;;52.17;30.30;;;;;;;;;;5055044;28;20512;-78
2023/04/07 05:02:10;;;;;;;52.10;30.70;;;;;;;;;;5073123;28;20421;-78
2023/04/07 05:04:36;;;;;;;48.42;31.65;;;;;;;;;;5041615;28;20958;-78
2023/04/07 05:07:03;;;;;;;50.55;30.13;;;;;;;;;;5049792;28;20769;-78
2023/04/07 05:09:29;;;;;;;49.90;29.57;;;;;;;;;;5056594;28;20453;-78
2023/04/07 05:11:56;;;;;;;49.50;30.17;;;;;;;;;;5050543;28;20915;-77
2023/04/07 05:14:23;;;;;;;48.80;30.35;;;;;;;;;;5041285;28;20479;-77
2023/04/07 05:16:49;;;;;;;44.53;29.50;;;;;;;;;;5089288;28;20420;-77
2023/04/07 05:19:15;;;;;;;46.90;30.90;;;;;;;;;;5086467;28;20765;-76
2023/04/07 05:21:41;;;;;;;46.42;29.77;;;;;;;;;;5073142;28;20410;-77
2023/04/07 05:24:07;;;;;;;49.33;29.45;;;;;;;;;;5073370;28;20505;-76
2023/04/07 05:26:33;;;;;;;49.53;30.50;;;;;;;;;;5048438;28;20422;-77
2023/04/07 05:29:00;;;;;;;47.88;31.35;;;;;;;;;;5082396;28;20774;-76
2023/04/07 05:31:26;;;;;;;135.75;37.10;;;;;;;;;;5070388;28;20426;-78
2023/04/07 05:33:52;;;;;;;69.85;32.58;;;;;;;;;;5046107;28;20511;-76
2023/04/07 05:36:18;;;;;;;97.77;33.43;;;;;;;;;;5074937;28;20512;-77
2023/04/07 05:38:45;;;;;;;51.42;32.45;;;;;;;;;;5060134;28;20552;-76
2023/04/07 05:41:11;;;;;;;60.45;32.60;;;;;;;;;;5035882;28;20427;-75
2023/04/07 05:43:37;;;;;;;65.43;31.77;;;;;;;;;;5086784;28;20485;-75
2023/04/07 05:46:03;;;;;;;57.97;33.05;;;;;;;;;;5056889;28;20417;-76
2023/04/07 05:48:29;;;;;;;148.70;38.30;;;;;;;;;;5055207;28;20451;-77
2023/04/07 05:50:55;;;;;;;53.55;31.92;;;;;;;;;;5072486;28;20432;-77
2023/04/07 05:53:21;;;;;;;93.50;34.70;;;;;;;;;;5068325;28;20786;-75
2023/04/07 05:55:47;;;;;;;481.08;58.28;;;;;;;;;;5093643;28;20437;-77
2023/04/07 05:58:13;;;;;;;208.38;42.58;;;;;;;;;;5072049;28;20406;-77
2023/04/07 06:00:40;;;;;;;149.77;39.20;;;;;;;;;;5066854;28;20444;-78
2023/04/07 06:03:06;;;;;;;252.90;47.93;;;;;;;;;;5082979;28;20426;-77
2023/04/07 06:05:33;;;;;;;162.43;40.00;;;;;;;;;;5105226;28;20418;-77
2023/04/07 06:07:59;;;;;;;191.35;42.53;;;;;;;;;;5065268;28;20432;-77
2023/04/07 06:10:25;;;;;;;168.40;42.00;;;;;;;;;;5078433;28;20510;-78
2023/04/07 06:12:51;;;;;;;148.57;38.03;;;;;;;;;;5048406;28;20421;-77
2023/04/07 06:15:17;;;;;;;54.28;36.13;;;;;;;;;;5067102;28;20936;-77
2023/04/07 06:17:46;;;;;;;54.58;34.58;;;;;;;;;;5057753;28;20839;-77
2023/04/07 06:20:12;;;;;;;57.47;35.75;;;;;;;;;;5045940;28;20431;-77
2023/04/07 06:22:38;;;;;;;56.70;35.50;;;;;;;;;;5080822;28;20465;-78
2023/04/07 06:25:05;;;;;;;59.00;36.50;;;;;;;;;;5069271;28;20428;-77
2023/04/07 06:27:32;;;;;;;56.33;36.97;;;;;;;;;;5036458;28;20838;-78
2023/04/07 06:29:58;;;;;;;60.63;35.90;;;;;;;;;;5069123;28;20492;-78
2023/04/07 06:32:24;;;;;;;53.63;38.42;;;;;;;;;;5067900;28;20787;-77
2023/04/07 06:34:50;;;;;;;57.15;36.10;;;;;;;;;;5063107;28;20421;-78
2023/04/07 06:37:17;;;;;;;57.78;36.63;;;;;;;;;;5054128;28;20429;-77
2023/04/07 06:39:44;;;;;;;59.30;36.53;;;;;;;;;;5070798;28;20434;-77
2023/04/07 06:42:10;;;;;;;56.55;38.15;;;;;;;;;;5089038;28;20427;-79
2023/04/07 06:44:36;;;;;;;54.73;38.20;;;;;;;;;;5072599;28;20485;-80
2023/04/07 06:47:02;;;;;;;53.28;34.92;;;;;;;;;;5068523;28;20457;-79
2023/04/07 06:49:28;;;;;;;57.80;34.90;;;;;;;;;;5059925;28;20506;-80
2023/04/07 06:51:54;;;;;;;55.57;36.23;;;;;;;;;;5045541;28;20557;-80
2023/04/07 06:54:20;;;;;;;55.80;35.67;;;;;;;;;;5046637;28;20469;-81
2023/04/07 06:56:46;;;;;;;54.22;36.30;;;;;;;;;;5071406;28;20427;-80
2023/04/07 06:59:12;;;;;;;52.87;34.37;;;;;;;;;;5068201;28;20483;-77
2023/04/07 07:01:39;;;;;;;57.20;35.20;;;;;;;;;;5044165;28;20512;-77
2023/04/07 07:04:05;;;;;;;54.35;34.95;;;;;;;;;;5063857;28;20427;-77
2023/04/07 07:06:31;;;;;;;55.30;35.50;;;;;;;;;;5039138;28;20418;-78
2023/04/07 07:08:58;;;;;;;53.47;37.20;;;;;;;;;;5065694;28;20446;-77
2023/04/07 07:11:25;;;;;;;54.45;33.85;;;;;;;;;;5066472;28;20445;-78
2023/04/07 07:13:51;;;;;;;54.78;33.85;;;;;;;;;;5064852;28;20408;-78
2023/04/07 07:16:17;;;;;;;48.00;33.15;;;;;;;;;;5050919;28;20492;-77
2023/04/07 07:18:43;;;;;;;48.22;32.78;;;;;;;;;;5052675;28;20423;-78
2023/04/07 07:21:09;;;;;;;48.30;32.65;;;;;;;;;;5050732;28;20483;-76
2023/04/07 07:23:35;;;;;;;45.63;31.95;;;;;;;;;;5047764;28;20518;-77
2023/04/07 07:26:01;;;;;;;84.38;33.72;;;;;;;;;;5063711;28;20477;-77
2023/04/07 07:28:28;;;;;;;42.92;31.30;;;;;;;;;;5034353;28;20498;-77
2023/04/07 07:30:54;;;;;;;44.25;29.83;;;;;;;;;;5050373;28;20427;-77
2023/04/07 07:33:21;;;;;;;42.17;30.02;;;;;;;;;;5046608;28;20426;-77
2023/04/07 07:35:47;;;;;;;59.50;31.48;;;;;;;;;;5035896;28;20906;-76
2023/04/07 07:38:14;;;;;;;42.67;30.25;;;;;;;;;;5071041;28;20412;-76
2023/04/07 07:40:40;;;;;;;40.83;29.03;;;;;;;;;;5064877;28;20916;-77
2023/04/07 07:43:06;;;;;;;40.70;29.40;;;;;;;;;;5095503;28;21114;-75
2023/04/07 07:45:32;;;;;;;40.15;28.70;;;;;;;;;;5056144;28;20518;-77
2023/04/07 07:47:58;;;;;;;37.85;27.73;;;;;;;;;;5049412;28;20971;-80
2023/04/07 07:50:24;;;;;;;36.45;28.27;;;;;;;;;;5051209;28;20417;-80
2023/04/07 07:52:50;;;;;;;33.92;26.63;;;;;;;;;;5071061;28;21590;-80
2023/04/07 07:55:16;;;;;;;38.30;26.35;;;;;;;;;;5065586;28;20412;-79
2023/04/07 07:57:43;;;;;;;39.28;29.08;;;;;;;;;;5072329;28;20412;-81
2023/04/07 08:00:09;;;;;;;37.85;27.23;;;;;;;;;;5061392;28;20413;-81
2023/04/07 08:02:35;;;;;;;37.08;26.95;;;;;;;;;;5101384;28;20434;-80
2023/04/07 08:05:01;;;;;;;37.92;26.92;;;;;;;;;;5068198;28;20922;-82
2023/04/07 08:07:27;;;;;;;36.92;26.83;;;;;;;;;;5055419;28;20430;-83
2023/04/07 08:09:54;;;;;;;35.60;27.33;;;;;;;;;;5047608;28;20984;-82
2023/04/07 08:12:20;;;;;;;32.03;25.00;;;;;;;;;;5038428;28;20936;-80
2023/04/07 08:14:46;;;;;;;33.35;25.10;;;;;;;;;;5100727;28;20430;-80
2023/04/07 08:17:12;;;;;;;32.25;24.85;;;;;;;;;;5069591;28;20484;-81
2023/04/07 08:19:38;;;;;;;28.75;23.30;;;;;;;;;;5061523;28;20427;-80
2023/04/07 08:22:04;;;;;;;59.25;26.23;;;;;;;;;;5105770;28;20431;-79
2023/04/07 08:24:30;;;;;;;29.73;24.20;;;;;;;;;;5037578;28;20488;-77
2023/04/07 08:26:56;;;;;;;31.13;24.00;;;;;;;;;;5066558;28;20419;-77
2023/04/07 08:29:22;;;;;;;27.83;22.90;;;;;;;;;;5069897;28;20419;-78
2023/04/07 08:31:49;;;;;;;28.83;23.83;;;;;;;;;;5037224;28;20418;-78
2023/04/07 08:34:15;;;;;;;31.07;23.20;;;;;;;;;;5055204;28;20416;-77
2023/04/07 08:36:41;;;;;;;29.08;22.48;;;;;;;;;;5045365;28;20494;-77
2023/04/07 08:39:07;;;;;;;24.30;21.57;;;;;;;;;;5062140;28;20915;-77
2023/04/07 08:41:37;;;;;;;28.60;21.88;;;;;;;;;;5048166;28;20477;-77
2023/04/07 08:44:03;;;;;;;26.90;21.63;;;;;;;;;;5072216;28;20510;-77
2023/04/07 08:46:30;;;;;;;26.98;21.45;;;;;;;;;;5063265;28;20425;-78
2023/04/07 08:48:57;;;;;;;28.52;21.35;;;;;;;;;;5056942;28;20978;-79
2023/04/07 08:51:30;;;;;;;25.20;20.02;;;;;;;;;;5064893;28;20414;-78
2023/04/07 08:54:21;;;;;;;25.40;20.05;;;8.40;99.90;;;;;;5051642;28;20399;-78
2023/04/07 08:56:47;;;;;;;22.20;18.00;;;;;;;;;;5057532;28;20421;-79
2023/04/07 08:59:14;;;;;;;24.20;18.83;;;;;;;;;;5068419;28;20424;-79
2023/04/07 09:01:41;;;;;;;25.55;19.48;;;;;;;;;;5047703;28;20919;-80
2023/04/07 09:04:08;;;;;;;21.67;17.95;;;;;;;;;;5061392;28;20868;-80
2023/04/07 09:06:36;;;;;;;19.73;17.30;;;;;;;;;;5050268;28;20446;-81
2023/04/07 09:09:17;;;;;;;21.13;17.10;;;;;;;;;;5073811;28;20493;-81
2023/04/07 09:11:44;;;;;;;19.10;16.00;;;;;;;;;;5069871;28;20427;-81
2023/04/07 09:14:11;;;;;;;20.05;16.92;;;;;;;;;;5071912;28;20580;-82
2023/04/07 09:16:47;;;;;;;18.00;15.47;;;;;;;;;;5047056;28;20513;-81
2023/04/07 09:19:13;;;;;;;19.23;15.40;;;;;;;;;;5052104;28;20819;-81
2023/04/07 09:21:50;;;;;;;19.15;15.20;;;;;;;;;;5051658;28;20911;-81
2023/04/07 09:24:23;;;;;;;17.50;14.98;;;;;;;;;;5087653;28;20437;-81
2023/04/07 09:26:50;;;;;;;17.77;14.45;;;;;;;;;;5078574;28;20906;-81
2023/04/07 09:29:20;;;;;;;19.45;15.65;;;;;;;;;;5072311;28;20432;-81
2023/04/07 09:31:54;;;;;;;17.17;13.60;;;;;;;;;;5055461;28;20521;-81
2023/04/07 09:34:31;;;;;;;14.77;13.15;;;;;;;;;;5049054;28;20417;-81
2023/04/07 09:36:57;;;;;;;15.98;13.02;;;;;;;;;;5055500;28;20426;-82
2023/04/07 09:39:24;;;;;;;14.50;12.47;;;;;;;;;;5054094;28;20420;-81
2023/04/07 09:41:53;;;;;;;13.65;12.23;;;;;;;;;;5070295;28;20414;-81
2023/04/07 09:44:21;;;;;;;14.52;12.15;;;;;;;;;;5084029;28;22181;-79
2023/04/07 09:46:57;;;;;;;14.73;11.87;;;;;;;;;;5052426;28;20416;-82
2023/04/07 09:49:27;;;;;;;16.40;12.33;;;;;;;;;;5050311;28;20435;-82
2023/04/07 09:51:53;;;;;;;15.40;12.60;;;;;;;;;;5077693;28;20799;-81
2023/04/07 09:54:36;;;;;;;14.47;11.93;;;;;;;;;;5073308;28;20483;-82
2023/04/07 09:57:03;;;;;;;13.68;11.80;;;;;;;;;;5044230;28;20405;-82
2023/04/07 09:59:30;;;;;;;11.60;9.88;;;;;;;;;;5054898;28;20440;-82
2023/04/07 10:01:57;;;;;;;12.48;10.95;;;;;;;;;;5079599;28;20766;-82
2023/04/07 10:04:26;;;;;;;13.10;10.70;;;;;;;;;;5092642;28;20441;-80
2023/04/07 10:06:56;;;;;;;12.00;10.38;;;;;;;;;;5094863;28;20417;-80
2023/04/07 10:09:24;;;;;;;12.38;10.65;;;;;;;;;;5094633;28;20425;-82
2023/04/07 10:11:50;;;;;;;10.85;9.25;;;;;;;;;;5043386;28;20500;-82
2023/04/07 10:14:20;;;;;;;11.27;10.02;;;;;;;;;;5069172;28;20414;-82
2023/04/07 10:16:53;;;;;;;11.75;10.30;;;;;;;;;;5093180;28;20901;-83
2023/04/07 10:19:19;;;;;;;10.20;9.07;;;;;;;;;;5061314;28;20397;-81
2023/04/07 10:21:50;;;;;;;10.60;9.27;;;;;;;;;;5052763;28;20495;-83
2023/04/07 10:24:23;;;;;;;12.17;10.50;;;;;;;;;;5077307;28;20427;-81
2023/04/07 10:27:03;;;;;;;14.27;11.63;;;;;;;;;;5069464;28;20898;-81
2023/04/07 10:29:39;;;;;;;12.98;9.98;;;;;;;;;;5100930;28;20473;-80
2023/04/07 10:32:05;;;;;;;12.68;10.00;;;;;;;;;;5069616;28;20414;-81
2023/04/07 10:34:50;;;;;;;11.77;9.80;;;;;;;;;;5051147;28;20421;-82
2023/04/07 10:37:20;;;;;;;11.38;9.77;;;;;;;;;;5075639;28;20414;-81
2023/04/07 10:39:46;;;;;;;11.38;9.35;;;;;;;;;;5074587;28;20456;-81
2023/04/07 10:42:32;;;;;;;13.23;10.73;;;;;;;;;;5036149;28;20430;-81
2023/04/07 10:44:59;;;;;;;12.40;9.98;;;;;;;;;;5072672;28;20425;-81
2023/04/07 10:47:26;;;;;;;11.70;9.38;;;;;;;;;;5058473;28;20464;-80
2023/04/07 10:50:11;;;;;;;11.82;9.77;;;;;;;;;;5069569;28;20822;-80
2023/04/07 10:52:37;;;;;;;11.35;9.38;;;;;;;;;;5057677;28;20421;-81
2023/04/07 10:55:22;;;;;;;10.75;9.07;;;;;;;;;;5070670;28;20788;-81
2023/04/07 10:58:13;;;;;;;11.93;9.50;;;9.50;99.90;;;;;;5081109;28;20439;-80
2023/04/07 11:00:39;;;;;;;12.13;9.68;;;;;;;;;;5077286;28;20422;-81
2023/04/07 11:03:12;;;;;;;10.52;8.70;;;;;;;;;;5080617;28;20830;-82
2023/04/07 11:05:42;;;;;;;11.20;9.32;;;;;;;;;;5095384;28;20471;-79
2023/04/07 11:08:08;;;;;;;11.93;9.27;;;;;;;;;;5090645;28;20458;-79
2023/04/07 11:10:35;;;;;;;10.80;9.50;;;;;;;;;;5083555;28;20428;-80
2023/04/07 11:13:03;;;;;;;11.07;9.07;;;9.40;99.90;;;;;;5036667;28;20814;-80
2023/04/07 11:15:30;;;;;;;11.90;9.40;;;;;;;;;;5051395;28;20488;-80
2023/04/07 11:18:16;;;;;;;11.88;9.20;;;;;;;;;;5093390;28;21029;-80
2023/04/07 11:20:45;;;;;;;11.02;9.20;;;;;;;;;;5084421;28;20944;-80
2023/04/07 11:23:12;;;;;;;11.73;9.40;;;;;;;;;;5071593;28;20970;-80
2023/04/07 11:25:41;;;;;;;10.63;9.40;;;;;;;;;;5073183;28;20461;-80
2023/04/07 11:28:10;;;;;;;11.13;9.13;;;;;;;;;;5081956;28;20422;-81
2023/04/07 11:30:36;;;;;;;11.43;9.60;;;;;;;;;;5085326;28;20422;-80
2023/04/07 11:33:07;;;;;;;12.57;9.57;;;;;;;;;;5104311;28;20414;-80
2023/04/07 11:35:33;;;;;;;10.38;9.20;;;;;;;;;;5084961;28;20804;-80
2023/04/07 11:38:00;;;;;;;11.88;9.68;;;;;;;;;;5073847;28;20449;-80
2023/04/07 11:40:36;;;;;;;11.82;9.85;;;;;;;;;;5066904;28;20811;-79
2023/04/07 11:43:22;;;;;;;11.35;9.57;;;;;;;;;;5088676;28;20458;-79
2023/04/07 11:46:04;;;;;;;11.70;9.70;;;;;;;;;;5066321;28;20425;-80
2023/04/07 11:48:31;;;;;;;11.88;9.82;;;;;;;;;;5090106;28;20453;-80
2023/04/07 11:50:57;;;;;;;11.33;9.40;;;;;;;;;;5073067;28;20483;-80
2023/04/07 11:53:27;;;;;;;10.93;9.02;;;;;;;;;;5085841;28;20415;-79
2023/04/07 11:56:04;;;;;;;10.43;9.27;;;;;;;;;;5087308;28;20421;-78
2023/04/07 11:58:30;;;;;;;12.38;9.32;;;;;;;;;;5091770;28;20427;-79
2023/04/07 12:00:57;;;;;;;10.88;9.23;;;;;;;;;;5071948;28;20464;-78
2023/04/07 12:03:23;;;;;;;10.18;8.23;;;;;;;;;;5066792;28;20933;-82
2023/04/07 12:05:50;;;;;;;9.70;8.23;;;;;;;;;;5088636;28;20464;-79
2023/04/07 12:08:16;;;;;;;9.95;8.00;;;;;;;;;;5124752;28;20445;-79
2023/04/07 12:10:42;;;;;;;9.50;8.07;;;;;;;;;;5095652;28;20489;-79
2023/04/07 12:13:08;;;;;;;9.75;7.75;;;;;;;;;;5097942;28;20465;-79
2023/04/07 12:15:36;;;;;;;10.03;8.10;;;;;;;;;;5071399;28;20477;-80
2023/04/07 12:18:02;;;;;;;10.05;8.23;;;;;;;;;;5050636;28;20443;-80
2023/04/07 12:20:29;;;;;;;10.40;7.50;;;;;;;;;;5070307;28;20448;-79
2023/04/07 12:22:55;;;;;;;8.60;7.40;;;;;;;;;;5071894;28;20426;-79
2023/04/07 12:25:21;;;;;;;8.73;7.50;;;;;;;;;;5103237;28;20421;-79
2023/04/07 12:27:47;;;;;;;10.75;7.85;;;;;;;;;;5069275;28;20812;-78
2023/04/07 12:30:13;;;;;;;10.38;7.80;;;;;;;;;;5087601;28;20996;-79
2023/04/07 12:32:39;;;;;;;8.52;6.68;;;;;;;;;;5061722;28;20412;-79
2023/04/07 12:35:06;;;;;;;8.27;7.10;;;;;;;;;;5073266;28;20471;-79
2023/04/07 12:37:32;;;;;;;8.40;6.80;;;;;;;;;;5072018;28;20504;-79
2023/04/07 12:39:58;;;;;;;7.70;6.68;;;;;;;;;;5070111;28;20426;-79
2023/04/07 12:42:25;;;;;;;10.63;7.30;;;;;;;;;;5066040;28;20461;-79
2023/04/07 12:44:51;;;;;;;10.98;7.85;;;;;;;;;;5075234;28;20419;-79
2023/04/07 12:47:18;;;;;;;9.00;7.47;;;;;;;;;;5054553;28;20395;-79
2023/04/07 12:49:44;;;;;;;9.40;7.80;;;;;;;;;;5088673;28;20744;-79
2023/04/07 12:52:10;;;;;;;9.77;7.73;;;;;;;;;;5088409;28;20410;-79
2023/04/07 12:54:37;;;;;;;8.38;7.10;;;;;;;;;;5071247;28;20884;-80
2023/04/07 12:57:03;;;;;;;8.75;7.25;;;;;;;;;;5071496;28;20395;-79
2023/04/07 12:59:29;;;;;;;9.45;7.72;;;;;;;;;;5071000;28;20403;-79
2023/04/07 13:01:55;;;;;;;8.68;7.78;;;;;;;;;;5088370;28;20887;-79
2023/04/07 13:04:23;;;;;;;10.50;7.43;;;;;;;;;;5088504;28;20748;-79
2023/04/07 13:06:49;;;;;;;8.98;7.57;;;;;;;;;;5071461;28;20733;-79
2023/04/07 13:09:16;;;;;;;8.15;6.95;;;;;;;;;;5087945;28;20415;-79
2023/04/07 13:11:42;;;;;;;10.17;7.37;;;;;;;;;;5071287;28;20415;-79
2023/04/07 13:14:08;;;;;;;9.20;7.28;;;;;;;;;;5071008;28;20461;-79
2023/04/07 13:16:34;;;;;;;8.50;7.32;;;;;;;;;;5087850;28;20395;-79
2023/04/07 13:19:00;;;;;;;8.40;6.90;;;;;;;;;;5087952;28;20929;-79
2023/04/07 13:21:27;;;;;;;9.48;6.90;;;;;;;;;;5071041;28;20400;-79
2023/04/07 13:23:53;;;;;;;8.33;6.90;;;;;;;;;;5070965;28;20517;-80
2023/04/07 13:26:19;;;;;;;7.75;6.50;;;;;;;;;;5087936;28;20449;-79
2023/04/07 13:28:48;;;;;;;9.20;6.45;;;;;;;;;;5071500;28;20431;-79
2023/04/07 13:31:14;;;;;;;8.40;6.23;;;;;;;;;;5070976;28;21040;-79
2023/04/07 13:33:41;;;;;;;7.25;5.55;;;;;;;;;;5070802;28;20483;-79
2023/04/07 13:36:07;;;;;;;7.53;6.03;;;;;;;;;;5070719;28;20403;-79
2023/04/07 13:38:33;;;;;;;7.20;6.23;;;;;;;;;;5071075;28;20430;-79
2023/04/07 13:40:59;;;;;;;7.00;5.95;;;;;;;;;;5087830;28;20414;-79
2023/04/07 13:43:25;;;;;;;7.30;6.10;;;;;;;;;;5087431;28;20417;-78
2023/04/07 13:45:51;;;;;;;8.07;5.85;;;;;;;;;;5070625;28;20461;-79
2023/04/07 13:48:17;;;;;;;7.53;6.07;;;;;;;;;;5087530;28;20410;-80
2023/04/07 13:50:44;;;;;;;7.57;6.57;;;;;;;;;;5070680;28;20423;-79
2023/04/07 13:53:10;;;;;;;7.60;6.60;;;;;;;;;;5087311;28;20402;-80
2023/04/07 13:55:36;;;;;;;7.28;6.28;;;;;;;;;;5087434;28;20487;-79
2023/04/07 13:58:02;;;;;;;8.07;6.22;;;;;;;;;;5070533;28;20408;-82
2023/04/07 14:00:28;;;;;;;7.95;6.05;;;;;;;;;;5087799;28;20483;-82
2023/04/07 14:02:57;;;;;;;7.27;5.93;;;;;;;;;;5070676;28;20937;-83
2023/04/07 14:05:24;;;;;;;8.50;6.43;;;;;;;;;;5087501;28;20400;-82
2023/04/07 14:07:55;;;;;;;7.93;6.35;;;;;;;;;;5087547;28;20403;-82
2023/04/07 14:10:21;;;;;;;8.65;6.50;;;;;;;;;;5087279;28;20423;-81
2023/04/07 14:12:47;;;;;;;9.95;6.40;;;;;;;;;;5087527;28;20407;-82
2023/04/07 14:15:13;;;;;;;8.48;6.47;;;;;;;;;;5087157;28;20482;-82
2023/04/07 14:17:39;;;;;;;7.88;6.10;;;;;;;;;;5088604;28;20887;-82
2023/04/07 14:20:06;;;;;;;8.38;6.30;;;;;;;;;;5088903;28;20414;-82